createdAt,value
2022-10-29T00:02:24.809Z,9.14
2022-10-29T00:05:30.493Z,8.97
2022-10-29T00:08:40.365Z,9.03
2022-10-29T00:11:46.030Z,8.90
2022-10-29T00:14:54.407Z,8.98
2022-10-29T00:18:00.124Z,9.01
2022-10-29T00:21:13.790Z,9.06
2022-10-29T00:24:19.390Z,9.18
2022-10-29T00:27:25.149Z,9.03
2022-10-29T00:30:33.443Z,9.10
2022-10-29T00:33:39.220Z,9.08
2022-10-29T00:36:44.811Z,9.28
2022-10-29T00:39:50.376Z,9.12
2022-10-29T00:42:56.015Z,9.12
2022-10-29T00:46:10.419Z,9.15
2022-10-29T00:49:17.283Z,9.07
2022-10-29T00:52:28.863Z,9.09
2022-10-29T00:55:35.688Z,9.07
2022-10-29T00:58:41.738Z,9.02
2022-10-29T01:01:52.849Z,8.97
2022-10-29T01:04:59.654Z,8.85
2022-10-29T01:08:06.249Z,8.80
2022-10-29T01:11:29.797Z,8.61
2022-10-29T01:14:52.651Z,8.56
2022-10-29T01:18:20.801Z,8.55
2022-10-29T01:21:45.364Z,8.58
2022-10-29T01:25:33.377Z,8.67
2022-10-29T01:29:13.508Z,8.90
2022-10-29T01:32:34.411Z,8.98
2022-10-29T01:35:59.162Z,9.08
2022-10-29T01:39:19.883Z,8.98
2022-10-29T01:42:38.644Z,8.86
2022-10-29T01:45:53.763Z,8.90
2022-10-29T01:49:15.126Z,8.73
2022-10-29T01:52:27.583Z,8.85
2022-10-29T01:55:38.267Z,8.87
2022-10-29T01:58:53.282Z,8.98
2022-10-29T02:02:15.682Z,9.12
2022-10-29T02:05:35.881Z,8.99
2022-10-29T02:08:59.021Z,8.97
2022-10-29T02:12:18.901Z,8.89
2022-10-29T02:15:36.430Z,8.91
2022-10-29T02:18:48.951Z,8.96
2022-10-29T02:21:57.113Z,9.01
2022-10-29T02:25:03.218Z,8.96
2022-10-29T02:28:09.615Z,9.02
2022-10-29T02:31:15.343Z,8.87
2022-10-29T02:34:21.025Z,8.75
2022-10-29T02:37:29.733Z,8.72
2022-10-29T02:40:35.521Z,8.68
2022-10-29T02:43:41.154Z,8.74
2022-10-29T02:46:46.679Z,8.65
2022-10-29T02:49:52.482Z,8.65
2022-10-29T02:53:00.700Z,8.68
2022-10-29T02:56:07.785Z,8.75
2022-10-29T02:59:13.465Z,8.76
2022-10-29T03:02:19.303Z,8.82
2022-10-29T03:05:24.969Z,8.87
2022-10-29T03:08:33.226Z,9.02
2022-10-29T03:11:38.953Z,9.13
2022-10-29T03:14:46.282Z,8.87
2022-10-29T03:17:51.925Z,8.80
2022-10-29T03:20:57.555Z,8.88
2022-10-29T03:24:05.964Z,8.97
2022-10-29T03:27:11.663Z,9.06
2022-10-29T03:30:20.440Z,9.14
2022-10-29T03:33:26.867Z,9.15
2022-10-29T03:36:33.042Z,9.27
2022-10-29T03:39:41.313Z,9.38
2022-10-29T03:42:50.639Z,9.34
2022-10-29T03:45:57.547Z,9.38
2022-10-29T03:49:03.263Z,9.41
2022-10-29T03:52:08.886Z,9.46
2022-10-29T03:55:17.262Z,9.47
2022-10-29T03:58:24.207Z,9.36
2022-10-29T04:01:29.951Z,9.41
2022-10-29T04:04:35.674Z,9.48
2022-10-29T04:07:41.237Z,9.49
2022-10-29T04:10:54.407Z,9.52
2022-10-29T04:14:00.104Z,9.51
2022-10-29T04:17:05.753Z,9.46
2022-10-29T04:20:27.868Z,9.41
2022-10-29T04:30:33.651Z,9.44
2022-10-29T04:33:39.281Z,9.40
2022-10-29T04:36:44.831Z,9.45
2022-10-29T04:39:50.400Z,9.47
2022-10-29T04:42:58.879Z,9.25
2022-10-29T04:46:06.339Z,9.14
2022-10-29T04:49:12.131Z,9.07
2022-10-29T04:52:17.957Z,9.06
2022-10-29T04:55:23.629Z,9.05
2022-10-29T04:58:32.435Z,9.01
2022-10-29T05:01:38.070Z,9.22
2022-10-29T05:04:43.701Z,9.32
2022-10-29T05:07:50.081Z,9.49
2022-10-29T05:10:55.706Z,9.57
2022-10-29T05:14:03.965Z,9.54
2022-10-29T05:17:09.682Z,9.31
2022-10-29T05:20:15.418Z,9.29
2022-10-29T05:23:21.067Z,9.29
2022-10-29T05:26:26.838Z,9.36
2022-10-29T05:29:35.116Z,9.28
2022-10-29T05:32:40.864Z,9.28
2022-10-29T05:35:47.017Z,9.38
2022-10-29T05:38:52.736Z,9.46
2022-10-29T05:41:58.610Z,9.44
2022-10-29T05:45:07.893Z,9.23
2022-10-29T05:48:15.760Z,9.28
2022-10-29T05:51:21.533Z,9.21
2022-10-29T05:54:27.717Z,9.42
2022-10-29T05:57:33.503Z,9.38
2022-10-29T06:00:46.373Z,9.37
2022-10-29T06:06:59.110Z,9.42
2022-10-29T06:10:05.015Z,9.53
2022-10-29T06:13:15.120Z,9.67
2022-10-29T06:16:23.395Z,9.65
2022-10-29T06:19:29.074Z,9.80
2022-10-29T06:22:34.874Z,9.87
2022-10-29T06:25:40.513Z,9.94
2022-10-29T06:28:46.173Z,10.05
2022-10-29T06:31:54.414Z,10.12
2022-10-29T06:35:00.365Z,10.36
2022-10-29T06:38:09.373Z,10.58
2022-10-29T06:41:18.369Z,10.63
2022-10-29T06:44:24.939Z,10.60
2022-10-29T06:47:33.171Z,10.80
2022-10-29T06:50:45.426Z,10.87
2022-10-29T06:53:51.247Z,11.00
2022-10-29T06:56:57.011Z,11.04
2022-10-29T07:00:07.334Z,11.05
2022-10-29T07:03:23.395Z,11.07
2022-10-29T07:06:38.152Z,11.04
2022-10-29T07:09:44.571Z,11.28
2022-10-29T07:12:50.856Z,11.31
2022-10-29T07:16:00.291Z,11.52
2022-10-29T07:19:11.946Z,11.47
2022-10-29T07:22:25.034Z,11.54
2022-10-29T07:25:33.715Z,11.88
2022-10-29T07:28:39.814Z,11.79
2022-10-29T07:31:50.580Z,11.70
2022-10-29T07:34:59.397Z,11.70
2022-10-29T07:38:10.847Z,11.56
2022-10-29T07:41:17.238Z,12.05
2022-10-29T07:44:28.270Z,12.39
2022-10-29T07:47:38.892Z,13.36
2022-10-29T07:50:47.142Z,13.79
2022-10-29T07:53:52.783Z,14.07
2022-10-29T07:56:58.411Z,14.47
2022-10-29T08:00:03.955Z,14.28
2022-10-29T08:03:17.858Z,14.50
2022-10-29T08:06:27.571Z,14.82
2022-10-29T08:09:33.302Z,15.39
2022-10-29T08:12:38.906Z,15.51
2022-10-29T08:15:44.509Z,15.84
2022-10-29T08:18:50.257Z,16.04
2022-10-29T08:21:58.730Z,16.63
2022-10-29T08:25:04.372Z,16.75
2022-10-29T08:28:12.524Z,16.41
2022-10-29T08:31:28.071Z,15.82
2022-10-29T08:34:35.910Z,16.76
2022-10-29T08:37:48.738Z,17.08
2022-10-29T08:41:21.422Z,16.36
2022-10-29T08:45:18.754Z,16.76
2022-10-29T08:48:44.592Z,16.63
2022-10-29T08:52:10.441Z,16.76
2022-10-29T08:55:41.529Z,17.24
2022-10-29T08:59:04.117Z,17.31
2022-10-29T09:02:21.037Z,17.25
2022-10-29T09:05:35.950Z,17.67
2022-10-29T09:09:04.150Z,18.32
2022-10-29T09:12:52.312Z,18.58
2022-10-29T09:16:30.169Z,19.02
2022-10-29T09:20:02.018Z,18.81
2022-10-29T09:23:25.018Z,18.63
2022-10-29T09:26:43.913Z,17.79
2022-10-29T09:30:17.874Z,17.62
2022-10-29T09:33:29.227Z,17.86
2022-10-29T09:36:36.422Z,18.20
2022-10-29T09:39:47.823Z,18.34
2022-10-29T09:42:59.699Z,18.48
2022-10-29T09:46:23.770Z,18.93
2022-10-29T09:49:57.778Z,17.31
2022-10-29T09:53:03.689Z,17.88
2022-10-29T09:56:12.371Z,18.07
2022-10-29T09:59:35.187Z,18.21
2022-10-29T10:02:55.774Z,17.09
2022-10-29T10:06:09.036Z,17.76
2022-10-29T10:09:16.253Z,17.63
2022-10-29T10:12:23.934Z,17.32
2022-10-29T10:15:35.569Z,17.18
2022-10-29T10:18:46.979Z,16.57
2022-10-29T10:22:10.245Z,16.61
2022-10-29T10:25:38.094Z,16.60
2022-10-29T10:28:44.620Z,17.08
2022-10-29T10:31:53.018Z,17.85
2022-10-29T10:35:01.502Z,18.53
2022-10-29T10:38:12.444Z,18.95
2022-10-29T10:41:27.063Z,18.92
2022-10-29T10:44:34.278Z,18.89
2022-10-29T10:47:46.839Z,18.85
2022-10-29T10:50:56.791Z,18.51
2022-10-29T10:54:10.157Z,18.58
2022-10-29T10:57:28.442Z,18.93
2022-10-29T11:00:44.932Z,19.19
2022-10-29T11:03:58.614Z,19.26
2022-10-29T11:07:16.703Z,19.13
2022-10-29T11:10:33.996Z,18.79
2022-10-29T11:13:45.273Z,18.72
2022-10-29T11:16:58.384Z,18.71
2022-10-29T11:20:18.942Z,18.99
2022-10-29T11:23:42.096Z,19.22
2022-10-29T11:26:57.172Z,19.56
2022-10-29T11:30:09.754Z,19.51
2022-10-29T11:33:30.680Z,19.82
2022-10-29T11:36:47.667Z,19.47
2022-10-29T11:40:05.940Z,19.53
2022-10-29T11:43:16.080Z,19.45
2022-10-29T11:46:40.805Z,19.67
2022-10-29T11:50:12.816Z,19.17
2022-10-29T11:53:43.146Z,19.01
2022-10-29T11:57:03.748Z,18.92
2022-10-29T12:00:19.044Z,17.94
2022-10-29T12:04:00.720Z,17.43
2022-10-29T12:07:27.568Z,17.94
2022-10-29T12:10:51.434Z,18.70
2022-10-29T12:14:23.256Z,19.19
2022-10-29T12:17:45.768Z,18.79
2022-10-29T12:21:08.975Z,18.66
2022-10-29T12:24:41.481Z,18.47
2022-10-29T12:28:03.895Z,18.47
2022-10-29T12:31:31.136Z,18.41
2022-10-29T12:34:49.690Z,18.87
2022-10-29T12:38:26.433Z,18.85
2022-10-29T12:41:43.366Z,18.63
2022-10-29T12:45:17.817Z,18.63
2022-10-29T12:48:43.843Z,18.89
2022-10-29T12:51:59.189Z,19.03
2022-10-29T12:55:10.598Z,19.10
2022-10-29T12:58:48.937Z,19.01
2022-10-29T13:02:11.143Z,18.89
2022-10-29T13:05:39.038Z,18.86
2022-10-29T13:08:57.954Z,18.57
2022-10-29T13:12:09.902Z,17.76
2022-10-29T13:15:17.415Z,17.37
2022-10-29T13:18:31.717Z,17.36
2022-10-29T13:22:03.225Z,17.30
2022-10-29T13:25:46.127Z,17.21
2022-10-29T13:28:55.199Z,17.00
2022-10-29T13:32:05.517Z,16.74
2022-10-29T13:35:43.657Z,16.48
2022-10-29T13:39:07.689Z,15.84
2022-10-29T13:42:17.633Z,15.44
2022-10-29T13:45:24.368Z,15.55
2022-10-29T13:48:37.597Z,15.66
2022-10-29T13:51:58.540Z,15.62
2022-10-29T13:55:12.522Z,15.32
2022-10-29T13:58:30.378Z,15.06
2022-10-29T14:01:37.486Z,14.97
2022-10-29T14:04:52.235Z,14.70
2022-10-29T14:08:07.028Z,14.53
2022-10-29T14:11:28.226Z,14.11
2022-10-29T14:14:44.725Z,14.02
2022-10-29T14:17:50.388Z,13.81
2022-10-29T14:21:01.533Z,13.73
2022-10-29T14:24:11.566Z,13.71
2022-10-29T14:27:19.810Z,13.75
2022-10-29T14:30:29.530Z,13.45
2022-10-29T14:33:39.109Z,13.29
2022-10-29T14:36:50.864Z,13.31
2022-10-29T14:40:02.639Z,13.25
2022-10-29T14:43:27.809Z,13.07
2022-10-29T14:46:38.839Z,13.09
2022-10-29T14:49:52.870Z,12.99
2022-10-29T14:53:10.645Z,12.97
2022-10-29T14:56:26.339Z,12.89
2022-10-29T14:59:38.614Z,12.90
2022-10-29T15:02:56.188Z,12.82
2022-10-29T15:06:19.459Z,12.71
2022-10-29T15:09:29.845Z,12.61
2022-10-29T15:12:40.363Z,12.50
2022-10-29T15:15:58.920Z,12.52
2022-10-29T15:19:05.875Z,12.29
2022-10-29T15:22:12.688Z,12.19
2022-10-29T15:25:30.679Z,12.20
2022-10-29T15:28:44.775Z,12.00
2022-10-29T15:32:00.187Z,11.73
2022-10-29T15:35:13.977Z,11.60
2022-10-29T15:39:26.930Z,11.59
2022-10-29T15:42:40.486Z,11.68
2022-10-29T15:46:00.530Z,11.55
2022-10-29T15:49:22.496Z,11.62
2022-10-29T15:52:36.626Z,11.58
2022-10-29T15:55:42.437Z,11.53
2022-10-29T15:58:48.120Z,11.51
2022-10-29T16:01:53.876Z,11.32
2022-10-29T16:05:02.297Z,11.25
2022-10-29T16:08:08.835Z,11.11
2022-10-29T16:11:20.325Z,11.14
2022-10-29T16:14:29.706Z,10.99
2022-10-29T16:17:35.261Z,10.98
2022-10-29T16:20:43.594Z,10.98
2022-10-29T16:23:55.981Z,10.94
2022-10-29T16:27:07.672Z,11.01
2022-10-29T16:30:17.687Z,10.91
2022-10-29T16:33:23.767Z,10.81
2022-10-29T16:36:32.211Z,10.78
2022-10-29T16:39:37.789Z,10.80
2022-10-29T16:42:43.678Z,10.65
2022-10-29T16:45:49.407Z,10.59
2022-10-29T16:48:55.130Z,10.49
2022-10-29T16:52:03.232Z,10.56
2022-10-29T16:55:10.481Z,10.52
2022-10-29T16:58:19.130Z,10.61
2022-10-29T17:01:24.822Z,10.71
2022-10-29T17:04:33.573Z,10.75
2022-10-29T17:07:42.295Z,10.81
2022-10-29T17:10:48.045Z,10.78
2022-10-29T17:13:53.663Z,10.71
2022-10-29T17:17:00.855Z,10.55
2022-10-29T17:20:06.884Z,10.61
2022-10-29T17:23:15.357Z,10.56
2022-10-29T17:26:21.155Z,10.52
2022-10-29T17:29:26.923Z,10.48
2022-10-29T17:32:32.843Z,10.50
2022-10-29T17:35:38.559Z,10.48
2022-10-29T17:38:49.328Z,10.61
2022-10-29T17:42:02.178Z,10.57
2022-10-29T17:45:23.532Z,10.61
2022-10-29T17:48:29.262Z,10.56
2022-10-29T17:51:36.291Z,10.64
2022-10-29T17:54:44.679Z,10.64
2022-10-29T17:57:50.330Z,10.59
2022-10-29T18:01:08.716Z,10.55
2022-10-29T18:04:15.544Z,10.54
2022-10-29T18:07:21.128Z,10.52
2022-10-29T18:10:30.818Z,10.54
2022-10-29T18:13:43.089Z,10.52
2022-10-29T18:16:49.459Z,10.58
2022-10-29T18:19:55.683Z,10.56
2022-10-29T18:23:02.220Z,10.57
2022-10-29T18:26:26.413Z,10.48
2022-10-29T18:29:35.053Z,10.51
2022-10-29T18:32:40.772Z,10.46
2022-10-29T18:35:47.028Z,10.57
2022-10-29T18:38:54.970Z,10.59
2022-10-29T18:42:03.793Z,10.60
2022-10-29T18:45:11.837Z,10.73
2022-10-29T18:48:17.845Z,10.63
2022-10-29T18:51:26.747Z,10.44
2022-10-29T18:54:35.728Z,10.17
2022-10-29T18:57:56.696Z,10.15
2022-10-29T19:01:12.909Z,10.02
2022-10-29T19:04:19.637Z,9.83
2022-10-29T19:07:26.146Z,9.84
2022-10-29T19:10:34.735Z,9.93
2022-10-29T19:13:44.719Z,10.07
2022-10-29T19:16:50.554Z,10.04
2022-10-29T19:19:56.707Z,9.80
2022-10-29T19:23:03.058Z,9.80
2022-10-29T19:26:20.554Z,9.72
2022-10-29T19:29:29.554Z,9.71
2022-10-29T19:32:41.909Z,9.85
2022-10-29T19:35:48.300Z,9.87
2022-10-29T19:38:54.690Z,9.75
2022-10-29T19:42:00.392Z,9.70
2022-10-29T19:45:26.186Z,9.63
2022-10-29T19:48:32.600Z,9.76
2022-10-29T19:51:57.412Z,9.73
2022-10-29T19:55:03.135Z,9.80
2022-10-29T19:58:09.619Z,9.91
2022-10-29T20:01:21.756Z,9.90
2022-10-29T20:04:28.623Z,9.90
2022-10-29T20:07:34.532Z,10.02
2022-10-29T20:10:41.009Z,10.11
2022-10-29T20:13:47.231Z,9.92
2022-10-29T20:16:58.341Z,9.92
2022-10-29T20:20:04.580Z,9.98
2022-10-29T20:23:10.606Z,9.92
2022-10-29T20:26:16.764Z,9.94
2022-10-29T20:29:22.805Z,9.86
2022-10-29T20:32:31.138Z,9.75
2022-10-29T20:35:37.160Z,9.76
2022-10-29T20:38:43.247Z,9.90
2022-10-29T20:41:49.582Z,10.10
2022-10-29T20:44:55.678Z,10.25
2022-10-29T20:48:05.353Z,10.25
2022-10-29T20:51:12.064Z,10.12
2022-10-29T20:54:18.267Z,10.00
2022-10-29T20:57:24.431Z,10.22
2022-10-29T21:00:30.051Z,10.23
2022-10-29T21:03:38.574Z,10.26
2022-10-29T21:06:48.926Z,10.30
2022-10-29T21:09:54.685Z,10.13
2022-10-29T21:13:00.580Z,9.89
2022-10-29T21:16:33.786Z,10.07
2022-10-29T21:20:02.416Z,9.81
2022-10-29T21:23:08.031Z,9.71
2022-10-29T21:26:16.625Z,9.71
2022-10-29T21:29:22.177Z,9.63
2022-10-29T21:32:27.816Z,9.80
2022-10-29T21:35:42.634Z,9.96
2022-10-29T21:38:54.812Z,10.03
2022-10-29T21:42:00.445Z,10.05
2022-10-29T21:45:14.843Z,9.84
2022-10-29T21:48:24.596Z,9.63
2022-10-29T21:51:32.832Z,9.86
2022-10-29T21:54:44.643Z,9.59
2022-10-29T21:57:50.321Z,9.65
2022-10-29T22:01:04.835Z,9.53
2022-10-29T22:04:10.749Z,9.45
2022-10-29T22:07:19.032Z,9.49
2022-10-29T22:10:24.937Z,9.85
2022-10-29T22:13:32.014Z,9.84
2022-10-29T22:16:38.684Z,9.79
2022-10-29T22:19:45.723Z,9.79
2022-10-29T22:22:54.131Z,9.84
2022-10-29T22:25:59.865Z,9.99
2022-10-29T22:29:05.636Z,10.07
2022-10-29T22:32:11.485Z,9.98
2022-10-29T22:35:20.399Z,9.85
2022-10-29T22:38:28.625Z,9.88
2022-10-29T22:41:34.548Z,9.77
2022-10-29T22:44:40.152Z,9.72
2022-10-29T22:47:45.691Z,9.69
2022-10-29T22:50:51.367Z,9.69
2022-10-29T22:54:01.102Z,9.63
2022-10-29T22:57:06.857Z,9.59
2022-10-29T23:00:17.612Z,9.56
2022-10-29T23:03:23.153Z,9.47
2022-10-29T23:06:30.565Z,9.30
2022-10-29T23:09:38.782Z,9.45
2022-10-29T23:12:44.367Z,9.46
2022-10-29T23:15:50.508Z,9.29
2022-10-29T23:18:58.771Z,9.28
2022-10-29T23:22:04.444Z,9.34
2022-10-29T23:25:13.218Z,9.52
2022-10-29T23:28:18.869Z,9.48
2022-10-29T23:31:27.630Z,9.40
2022-10-29T23:34:33.240Z,9.32
2022-10-29T23:37:38.903Z,9.41
2022-10-29T23:40:50.162Z,9.39
2022-10-29T23:43:56.243Z,9.30
2022-10-29T23:47:01.884Z,9.15
2022-10-29T23:50:07.979Z,9.17
2022-10-29T23:53:13.668Z,9.31
2022-10-29T23:56:21.942Z,9.37
2022-10-29T23:59:27.469Z,9.22
